Ugnu Kuparuk, AK

12:15 PM AKDT op 01 september 2015 (GMT -0800)
Kuparuk | | Change Station
CLOSE
Current Station
Luchthaven
Location: Kuparuk,
Geometrische hoogte: 66 ft
Nabije weerstations

Hoogte 66 ft 70.33 °N, 149.60 °W | Updated 30 minutes ago

Mostly Cloudy
Merendeels bewolkt
36 °F
Voelt als 26 °F
N
15
Wind Variabel Wind van WZW

Vandaag
Hoog -- | Laag -- °F
--% Kans op neerslag
Gisteren
Hoog -- | Laag -- °F
Precip. -- inches
6:11 AM 9:42 PM
Afnemende maan, 86% visible
Druk 30.13 inches
Zicht 10.0 mijlen
Wolken Licht bewolkt 1000 ft
Merendeels bewolkt 1400 ft
Gevoelstemperatuur 26 °F
Dauwpunt 32 °F
Vochtigheid 87%
Neerslag 0.00 inches
Dikte sneeuw Niet beschikbaar.
UV 1 van de 12
Pollen Niet beschikbaar.
Luchtkwaliteit Niet beschikbaar.
Flu Activity Niet beschikbaar.
METAR PAKU 011945Z 25013KT 10SM R24/P6000FT SCT010 BKN014 02/M00 A3013
Druk 30.13 inches
Zicht 10.0 mijlen
Wolken Licht bewolkt 1000 ft
Merendeels bewolkt 1400 ft
Gevoelstemperatuur 26 °F
Dauwpunt 32 °F
Vochtigheid 87%
Neerslag 0.00 inches
Dikte sneeuw Niet beschikbaar.
UV 1 van de 12
Pollen Niet beschikbaar.
Luchtkwaliteit Niet beschikbaar.
Flu Activity Niet beschikbaar.
METAR PAKU 011945Z 25013KT 10SM R24/P6000FT SCT010 BKN014 02/M00 A3013

10-Day Weather Forecast

×

Almanac

Astronomie

Sep. 01, 2015 Opkomst Ondergang
Werkelijke tijd
Burgerlijke schemering
Nautische schemering
Astronomische schemering
Maan
Golflengte van het zichtbare licht
Daglengte
Tomorrow will be .
, % of the Moon is Illuminated

Extremen vandaag

State Highs State Lows

Community

WunderPhotos

Upload Photos

1,851,605 foto’s ge-upload!

WunderBlogs® & News

Nearby

Luchtkwaliteit

  Luchtkwaliteit LK-index Verontreinigende stof
Not available.

Dikte sneeuw

Station Depth Geometrische hoogte

Aardbevingen

Stad Distance Mag. Time & Date
Minimum magnitude displayed is 2.5.

Watertemperatuur langs de kust

Plaats Temperatuur

Stations

Nabije weerstations

Locatie station Temp. Gevoelstemperatuur Dauwpunt Vochtigheid Wind Precip. Hoogte Geactualiseerd Type